createdAt,value
2018-07-22T00:01:00.873Z,17.60
2018-07-22T00:03:29.021Z,17.60
2018-07-22T00:05:57.186Z,17.60
2018-07-22T00:08:25.321Z,17.60
2018-07-22T00:10:53.478Z,17.70
2018-07-22T00:13:21.624Z,17.70
2018-07-22T00:15:49.785Z,17.70
2018-07-22T00:18:17.952Z,17.60
2018-07-22T00:20:46.096Z,17.50
2018-07-22T00:23:14.263Z,17.50
2018-07-22T00:25:42.427Z,17.50
2018-07-22T00:30:38.522Z,17.50
2018-07-22T00:33:06.688Z,17.50
2018-07-22T00:35:34.857Z,17.50
2018-07-22T00:38:03.024Z,17.50
2018-07-22T00:40:31.177Z,17.50
2018-07-22T00:42:59.325Z,17.50
2018-07-22T00:45:27.495Z,17.50
2018-07-22T00:47:55.652Z,17.60
2018-07-22T00:50:23.829Z,17.60
2018-07-22T00:52:52.019Z,17.50
2018-07-22T00:55:20.168Z,17.50
2018-07-22T00:57:48.341Z,17.50
2018-07-22T01:00:16.542Z,17.50
2018-07-22T01:02:44.639Z,17.50
2018-07-22T01:05:12.785Z,17.50
2018-07-22T01:07:40.933Z,17.50
2018-07-22T01:10:09.097Z,17.50
2018-07-22T01:12:37.264Z,17.50
2018-07-22T01:15:05.749Z,17.50
2018-07-22T01:17:33.913Z,17.50
2018-07-22T01:20:02.077Z,17.50
2018-07-22T01:22:30.224Z,17.50
2018-07-22T01:24:58.381Z,17.40
2018-07-22T01:27:26.538Z,17.50
2018-07-22T01:29:54.681Z,17.50
2018-07-22T01:32:22.840Z,17.50
2018-07-22T01:34:51.001Z,17.40
2018-07-22T01:37:19.284Z,17.40
2018-07-22T01:39:47.580Z,17.40
2018-07-22T01:42:15.741Z,17.40
2018-07-22T01:44:43.884Z,17.40
2018-07-22T01:47:12.029Z,17.40
2018-07-22T01:49:40.165Z,17.50
2018-07-22T01:52:08.330Z,17.50
2018-07-22T01:54:36.457Z,17.40
2018-07-22T01:59:32.562Z,17.40
2018-07-22T02:02:00.731Z,17.50
2018-07-22T02:04:28.888Z,17.50
2018-07-22T02:06:57.057Z,17.50
2018-07-22T02:09:25.216Z,17.50
2018-07-22T02:11:53.384Z,17.50
2018-07-22T02:14:21.773Z,17.50
2018-07-22T02:16:49.925Z,17.50
2018-07-22T02:19:18.093Z,17.50
2018-07-22T02:21:46.264Z,17.50
2018-07-22T02:24:14.450Z,17.50
2018-07-22T02:26:42.637Z,17.50
2018-07-22T02:29:10.801Z,17.40
2018-07-22T02:31:38.962Z,17.40
2018-07-22T02:34:07.130Z,17.40
2018-07-22T02:36:35.334Z,17.40
2018-07-22T02:39:04.230Z,17.40
2018-07-22T02:41:32.403Z,17.50
2018-07-22T02:44:00.545Z,17.50
2018-07-22T02:46:28.701Z,17.40
2018-07-22T02:48:56.867Z,17.40
2018-07-22T02:51:25.053Z,17.40
2018-07-22T02:53:53.213Z,17.40
2018-07-22T02:56:21.377Z,17.40
2018-07-22T02:58:49.570Z,17.30
2018-07-22T03:01:17.827Z,17.30
2018-07-22T03:03:46.002Z,17.40
2018-07-22T03:06:14.176Z,17.40
2018-07-22T03:08:42.355Z,17.40
2018-07-22T03:11:10.494Z,17.40
2018-07-22T03:13:38.762Z,17.40
2018-07-22T03:16:07.298Z,17.30
2018-07-22T03:18:35.450Z,17.40
2018-07-22T03:21:03.689Z,17.30
2018-07-22T03:23:31.838Z,17.30
2018-07-22T03:26:00.008Z,17.30
2018-07-22T03:28:28.217Z,17.30
2018-07-22T03:30:56.382Z,17.30
2018-07-22T03:33:24.581Z,17.30
2018-07-22T03:35:52.745Z,17.30
2018-07-22T03:38:20.900Z,17.30
2018-07-22T03:40:49.047Z,17.20
2018-07-22T03:43:17.198Z,17.30
2018-07-22T03:45:45.376Z,17.30
2018-07-22T03:48:13.521Z,17.20
2018-07-22T03:50:41.682Z,17.20
2018-07-22T03:53:09.834Z,17.20
2018-07-22T03:55:37.973Z,17.20
2018-07-22T03:58:06.173Z,17.20
2018-07-22T04:00:34.334Z,17.20
2018-07-22T04:03:02.470Z,17.30
2018-07-22T04:05:30.645Z,17.20
2018-07-22T04:07:58.808Z,17.20
2018-07-22T04:10:26.977Z,17.30
2018-07-22T04:12:55.186Z,17.20
2018-07-22T04:15:23.366Z,17.20
2018-07-22T04:17:51.501Z,17.30
2018-07-22T04:20:19.657Z,17.40
2018-07-22T04:22:47.821Z,17.40
2018-07-22T04:25:15.966Z,17.40
2018-07-22T04:27:44.112Z,17.40
2018-07-22T04:30:12.269Z,17.40
2018-07-22T04:32:40.424Z,17.40
2018-07-22T04:35:08.603Z,17.40
2018-07-22T04:37:36.788Z,17.50
2018-07-22T04:40:05.965Z,17.50
2018-07-22T04:42:34.530Z,17.50
2018-07-22T04:45:02.677Z,17.50
2018-07-22T04:47:30.843Z,17.50
2018-07-22T04:49:58.993Z,17.50
2018-07-22T04:52:27.137Z,17.60
2018-07-22T04:54:55.290Z,17.60
2018-07-22T04:57:23.448Z,17.70
2018-07-22T04:59:51.616Z,17.70
2018-07-22T05:02:19.757Z,17.70
2018-07-22T05:04:47.964Z,17.80
2018-07-22T05:07:16.129Z,17.80
2018-07-22T05:09:44.336Z,17.80
2018-07-22T05:12:12.476Z,17.90
2018-07-22T05:17:08.594Z,17.90
2018-07-22T05:19:36.770Z,18.00
2018-07-22T05:22:04.967Z,18.00
2018-07-22T05:24:33.125Z,17.90
2018-07-22T05:27:01.301Z,18.00
2018-07-22T05:29:29.446Z,18.00
2018-07-22T05:31:57.606Z,18.00
2018-07-22T05:34:25.883Z,18.10
2018-07-22T05:36:54.078Z,18.20
2018-07-22T05:39:22.252Z,18.40
2018-07-22T05:41:50.433Z,18.60
2018-07-22T05:44:18.597Z,18.90
2018-07-22T05:46:46.769Z,18.60
2018-07-22T05:49:14.928Z,18.80
2018-07-22T05:51:43.118Z,19.20
2018-07-22T05:54:11.277Z,19.80
2018-07-22T05:56:39.444Z,20.00
2018-07-22T05:59:07.654Z,19.90
2018-07-22T06:01:35.851Z,20.50
2018-07-22T06:04:04.028Z,21.00
2018-07-22T06:06:32.172Z,20.80
2018-07-22T06:11:29.308Z,20.60
2018-07-22T06:13:57.621Z,21.00
2018-07-22T06:16:25.805Z,21.40
2018-07-22T06:18:53.950Z,21.10
2018-07-22T06:21:22.109Z,20.90
2018-07-22T06:23:50.268Z,20.90
2018-07-22T06:26:18.449Z,20.90
2018-07-22T06:28:46.612Z,20.70
2018-07-22T06:31:14.813Z,20.80
2018-07-22T06:33:42.965Z,21.50
2018-07-22T06:36:11.129Z,21.40
2018-07-22T06:38:41.104Z,20.90
2018-07-22T06:41:09.325Z,21.00
2018-07-22T06:43:39.530Z,21.10
2018-07-22T06:46:09.157Z,21.40
2018-07-22T06:48:37.506Z,20.90
2018-07-22T06:51:05.887Z,21.40
2018-07-22T06:53:34.130Z,21.60
2018-07-22T06:56:02.296Z,21.60
2018-07-22T06:58:30.708Z,22.10
2018-07-22T07:00:58.938Z,22.70
2018-07-22T07:03:27.104Z,22.80
2018-07-22T07:05:55.241Z,23.30
2018-07-22T07:08:23.402Z,22.90
2018-07-22T07:10:51.564Z,22.50
2018-07-22T07:13:19.717Z,22.50
2018-07-22T07:15:47.859Z,23.60
2018-07-22T07:18:16.025Z,22.70
2018-07-22T07:20:44.205Z,22.10
2018-07-22T07:23:12.345Z,21.70
2018-07-22T07:25:40.512Z,21.70
2018-07-22T07:28:08.679Z,21.70
2018-07-22T07:30:36.821Z,21.90
2018-07-22T07:33:04.982Z,21.90
2018-07-22T07:35:33.138Z,21.90
2018-07-22T07:38:01.298Z,22.00
2018-07-22T07:40:29.448Z,22.20
2018-07-22T07:42:57.661Z,22.00
2018-07-22T07:45:25.851Z,22.00
2018-07-22T07:47:54.017Z,21.90
2018-07-22T07:50:22.177Z,22.20
2018-07-22T07:52:50.366Z,22.30
2018-07-22T07:55:18.742Z,22.10
2018-07-22T07:57:46.958Z,21.90
2018-07-22T08:00:15.116Z,21.90
2018-07-22T08:02:43.269Z,21.70
2018-07-22T08:05:11.413Z,21.60
2018-07-22T08:07:39.570Z,21.50
2018-07-22T08:10:07.846Z,21.40
2018-07-22T08:12:36.008Z,21.50
2018-07-22T08:15:04.345Z,21.50
2018-07-22T08:17:32.534Z,21.50
2018-07-22T08:20:00.702Z,21.50
2018-07-22T08:22:28.853Z,21.40
2018-07-22T08:24:57.020Z,21.30
2018-07-22T08:27:25.167Z,21.20
2018-07-22T08:29:53.325Z,21.30
2018-07-22T08:32:21.489Z,21.20
2018-07-22T08:34:49.677Z,21.40
2018-07-22T08:37:17.808Z,21.40
2018-07-22T08:39:45.953Z,21.30
2018-07-22T08:42:14.103Z,21.30
2018-07-22T08:44:42.268Z,21.30
2018-07-22T08:47:10.430Z,21.40
2018-07-22T08:49:38.571Z,21.50
2018-07-22T08:52:06.734Z,21.80
2018-07-22T08:54:34.889Z,21.80
2018-07-22T08:57:03.044Z,22.10
2018-07-22T08:59:31.223Z,22.10
2018-07-22T09:01:59.393Z,22.30
2018-07-22T09:04:27.722Z,22.50
2018-07-22T09:06:55.885Z,22.80
2018-07-22T09:09:24.041Z,23.50
2018-07-22T09:11:52.308Z,23.30
2018-07-22T09:14:20.442Z,22.80
2018-07-22T09:16:48.594Z,23.00
2018-07-22T09:19:16.748Z,23.60
2018-07-22T09:24:12.852Z,23.60
2018-07-22T09:26:40.997Z,23.90
2018-07-22T09:29:09.181Z,23.50
2018-07-22T09:31:37.344Z,24.20
2018-07-22T09:34:05.500Z,24.50
2018-07-22T09:36:33.720Z,24.60
2018-07-22T09:39:01.872Z,26.30
2018-07-22T09:41:30.040Z,25.70
2018-07-22T09:43:58.209Z,26.40
2018-07-22T09:46:26.467Z,26.30
2018-07-22T09:48:54.625Z,26.80
2018-07-22T09:53:50.794Z,26.60
2018-07-22T09:56:19.085Z,25.20
2018-07-22T09:58:47.220Z,24.90
2018-07-22T10:03:43.353Z,25.30
2018-07-22T10:06:11.511Z,25.60
2018-07-22T10:08:39.656Z,26.50
2018-07-22T10:11:07.820Z,27.20
2018-07-22T10:13:35.976Z,27.50
2018-07-22T10:16:04.219Z,26.20
2018-07-22T10:18:32.400Z,25.70
2018-07-22T10:23:28.498Z,25.20
2018-07-22T10:25:56.646Z,25.20
2018-07-22T10:28:24.831Z,25.80
2018-07-22T10:30:52.984Z,26.10
2018-07-22T10:33:21.119Z,26.00
2018-07-22T10:35:49.284Z,26.40
2018-07-22T10:38:17.441Z,27.60
2018-07-22T10:40:45.643Z,27.40
2018-07-22T10:43:13.832Z,28.00
2018-07-22T10:45:41.953Z,27.50
2018-07-22T10:48:10.102Z,27.70
2018-07-22T10:50:38.260Z,27.00
2018-07-22T10:53:06.405Z,26.50
2018-07-22T10:58:02.486Z,26.40
2018-07-22T11:00:30.659Z,26.90
2018-07-22T11:02:58.786Z,26.60
2018-07-22T11:05:26.937Z,26.90
2018-07-22T11:07:55.140Z,27.50
2018-07-22T11:12:51.229Z,27.40
2018-07-22T11:15:19.364Z,27.30
2018-07-22T11:17:47.520Z,26.30
2018-07-22T11:22:43.563Z,26.70
2018-07-22T11:25:11.705Z,26.60
2018-07-22T11:27:39.856Z,27.00
2018-07-22T11:30:07.984Z,27.10
2018-07-22T11:32:36.151Z,26.70
2018-07-22T11:35:04.325Z,26.40
2018-07-22T11:37:32.471Z,26.40
2018-07-22T11:40:00.616Z,25.80
2018-07-22T11:42:29.186Z,25.10
2018-07-22T11:44:57.312Z,25.10
2018-07-22T11:47:25.469Z,24.90
2018-07-22T11:49:53.609Z,25.10
2018-07-22T11:52:21.808Z,25.00
2018-07-22T11:54:50.058Z,25.10
2018-07-22T11:57:18.197Z,24.90
2018-07-22T11:59:46.348Z,25.10
2018-07-22T12:02:14.510Z,25.10
2018-07-22T12:04:42.748Z,24.80
2018-07-22T12:07:10.946Z,25.00
2018-07-22T12:09:41.094Z,24.90
2018-07-22T12:12:09.269Z,24.90
2018-07-22T12:14:37.413Z,24.80
2018-07-22T12:17:05.618Z,24.50
2018-07-22T12:19:39.508Z,24.50
2018-07-22T12:22:07.658Z,24.60
2018-07-22T12:24:35.797Z,24.60
2018-07-22T12:27:03.985Z,24.40
2018-07-22T12:29:32.128Z,24.60
2018-07-22T12:34:28.273Z,24.50
2018-07-22T12:36:56.397Z,24.40
2018-07-22T12:39:24.557Z,24.40
2018-07-22T12:41:52.689Z,24.50
2018-07-22T12:44:20.848Z,24.70
2018-07-22T12:46:48.976Z,24.50
2018-07-22T12:49:17.150Z,24.30
2018-07-22T12:51:45.313Z,23.80
2018-07-22T12:54:13.452Z,23.80
2018-07-22T12:56:41.589Z,23.50
2018-07-22T12:59:09.757Z,23.30
2018-07-22T13:01:37.905Z,23.30
2018-07-22T13:04:06.153Z,23.20
2018-07-22T13:06:34.293Z,23.30
2018-07-22T13:09:02.447Z,23.10
2018-07-22T13:11:30.605Z,23.10
2018-07-22T13:13:58.749Z,23.20
2018-07-22T13:16:26.900Z,23.20
2018-07-22T13:18:55.124Z,23.30
2018-07-22T13:21:23.220Z,23.30
2018-07-22T13:23:51.392Z,23.60
2018-07-22T13:26:19.540Z,23.50
2018-07-22T13:28:47.700Z,23.60
2018-07-22T13:31:15.996Z,23.80
2018-07-22T13:33:44.136Z,24.30
2018-07-22T13:36:12.289Z,24.40
2018-07-22T13:38:40.458Z,24.20
2018-07-22T13:41:08.621Z,24.40
2018-07-22T13:43:36.808Z,24.00
2018-07-22T13:46:04.982Z,23.70
2018-07-22T13:48:33.225Z,23.70
2018-07-22T13:51:01.414Z,23.60
2018-07-22T13:53:29.560Z,23.40
2018-07-22T13:55:57.708Z,22.90
2018-07-22T13:58:25.854Z,22.90
2018-07-22T14:00:54.005Z,22.80
2018-07-22T14:03:22.149Z,22.50
2018-07-22T14:05:50.274Z,22.30
2018-07-22T14:08:18.408Z,22.10
2018-07-22T14:10:46.614Z,22.00
2018-07-22T14:13:14.744Z,21.60
2018-07-22T14:15:42.975Z,21.40
2018-07-22T14:18:11.046Z,21.30
2018-07-22T14:20:39.190Z,21.20
2018-07-22T14:23:07.335Z,21.10
2018-07-22T14:25:35.489Z,20.90
2018-07-22T14:28:03.679Z,20.70
2018-07-22T14:30:31.785Z,20.50
2018-07-22T14:32:59.946Z,20.40
2018-07-22T14:35:28.092Z,20.30
2018-07-22T14:37:56.247Z,20.30
2018-07-22T14:40:24.388Z,20.30
2018-07-22T14:42:52.537Z,20.20
2018-07-22T14:45:20.698Z,20.20
2018-07-22T14:47:48.837Z,20.20
2018-07-22T14:50:16.973Z,19.80
2018-07-22T14:52:45.125Z,19.60
2018-07-22T14:55:13.276Z,19.60
2018-07-22T14:57:41.428Z,19.60
2018-07-22T15:00:09.577Z,19.40
2018-07-22T15:02:37.849Z,19.30
2018-07-22T15:05:06.295Z,19.40
2018-07-22T15:07:34.529Z,19.40
2018-07-22T15:10:02.719Z,19.60
2018-07-22T15:12:30.892Z,19.70
2018-07-22T15:14:59.092Z,19.70
2018-07-22T15:17:27.319Z,19.50
2018-07-22T15:19:55.550Z,19.60
2018-07-22T15:22:23.721Z,19.80
2018-07-22T15:24:51.877Z,19.70
2018-07-22T15:27:20.076Z,20.80
2018-07-22T15:29:48.265Z,20.00
2018-07-22T15:32:16.470Z,20.20
2018-07-22T15:34:44.637Z,20.10
2018-07-22T15:37:12.768Z,20.40
2018-07-22T15:39:40.979Z,20.30
2018-07-22T15:42:09.128Z,20.30
2018-07-22T15:44:37.259Z,20.40
2018-07-22T15:47:05.579Z,20.30
2018-07-22T15:49:33.812Z,20.30
2018-07-22T15:52:01.953Z,20.40
2018-07-22T15:54:30.181Z,20.40
2018-07-22T15:56:58.328Z,20.30
2018-07-22T15:59:26.493Z,20.10
2018-07-22T16:01:54.671Z,20.10
2018-07-22T16:04:22.800Z,20.00
2018-07-22T16:06:51.022Z,20.10
2018-07-22T16:09:19.167Z,20.10
2018-07-22T16:11:47.311Z,20.20
2018-07-22T16:14:15.521Z,20.20
2018-07-22T16:16:43.621Z,20.30
2018-07-22T16:19:11.777Z,20.20
2018-07-22T16:21:39.929Z,20.20
2018-07-22T16:24:08.054Z,20.20
2018-07-22T16:26:36.194Z,20.30
2018-07-22T16:29:04.344Z,20.30
2018-07-22T16:31:32.484Z,20.40
2018-07-22T16:34:00.639Z,20.40
2018-07-22T16:36:28.847Z,20.30
2018-07-22T16:38:56.955Z,20.30
2018-07-22T16:41:25.107Z,20.50
2018-07-22T16:43:53.257Z,20.50
2018-07-22T16:46:21.395Z,20.50
2018-07-22T16:48:49.567Z,20.50
2018-07-22T16:51:17.696Z,20.60
2018-07-22T16:53:45.890Z,20.50
2018-07-22T16:56:13.991Z,20.40
2018-07-22T16:58:42.148Z,20.40
2018-07-22T17:01:10.299Z,20.40
2018-07-22T17:03:38.466Z,20.40
2018-07-22T17:06:06.592Z,20.40
2018-07-22T17:08:34.756Z,20.30
2018-07-22T17:11:02.889Z,20.30
2018-07-22T17:13:31.049Z,20.40
2018-07-22T17:15:59.181Z,20.30
2018-07-22T17:18:27.329Z,20.30
2018-07-22T17:20:55.471Z,20.40
2018-07-22T17:23:23.740Z,20.40
2018-07-22T17:25:51.928Z,20.40
2018-07-22T17:28:20.340Z,20.40
2018-07-22T17:30:48.507Z,20.40
2018-07-22T17:33:16.672Z,20.30
2018-07-22T17:35:44.813Z,20.20
2018-07-22T17:38:12.969Z,20.30
2018-07-22T17:40:41.161Z,20.30
2018-07-22T17:43:09.327Z,20.20
2018-07-22T17:45:38.476Z,20.20
2018-07-22T17:48:06.645Z,20.10
2018-07-22T17:50:34.816Z,20.10
2018-07-22T17:53:02.958Z,20.20
2018-07-22T17:55:31.108Z,20.10
2018-07-22T17:57:59.320Z,20.10
2018-07-22T18:00:27.516Z,20.00
2018-07-22T18:03:34.516Z,20.00
2018-07-22T18:06:03.525Z,19.80
2018-07-22T18:08:31.704Z,19.70
2018-07-22T18:10:59.898Z,19.80
2018-07-22T18:13:28.077Z,19.70
2018-07-22T18:15:56.251Z,19.70
2018-07-22T18:18:24.437Z,19.70
2018-07-22T18:20:52.609Z,19.60
2018-07-22T18:23:20.779Z,19.60
2018-07-22T18:25:48.947Z,19.50
2018-07-22T18:28:17.088Z,19.50
2018-07-22T18:30:45.541Z,19.50
2018-07-22T18:33:13.670Z,19.60
2018-07-22T18:35:41.890Z,19.60
2018-07-22T18:38:10.018Z,19.60
2018-07-22T18:40:38.176Z,19.60
2018-07-22T18:43:06.311Z,19.50
2018-07-22T18:45:34.528Z,19.50
2018-07-22T18:48:02.598Z,19.50
2018-07-22T18:50:30.793Z,19.50
2018-07-22T18:52:58.940Z,19.50
2018-07-22T18:55:28.445Z,19.40
2018-07-22T18:57:56.633Z,19.40
2018-07-22T19:00:25.093Z,19.30
2018-07-22T19:02:53.252Z,19.30
2018-07-22T19:05:21.453Z,19.20
2018-07-22T19:07:49.616Z,19.20
2018-07-22T19:10:17.825Z,19.20
2018-07-22T19:12:46.001Z,19.20
2018-07-22T19:15:14.222Z,19.20
2018-07-22T19:17:42.507Z,19.20
2018-07-22T19:20:11.183Z,19.20
2018-07-22T19:22:39.331Z,19.10
2018-07-22T19:25:07.503Z,19.20
2018-07-22T19:27:35.655Z,19.20
2018-07-22T19:30:03.987Z,19.10
2018-07-22T19:32:32.133Z,19.10
2018-07-22T19:35:00.392Z,19.10
2018-07-22T19:37:28.597Z,19.10
2018-07-22T19:39:56.790Z,19.10
2018-07-22T19:42:24.888Z,19.10
2018-07-22T19:44:53.157Z,19.10
2018-07-22T19:47:21.314Z,19.10
2018-07-22T19:49:49.493Z,19.10
2018-07-22T19:52:17.630Z,19.00
2018-07-22T19:54:45.792Z,19.00
2018-07-22T19:57:13.980Z,18.90
2018-07-22T19:59:42.161Z,18.90
2018-07-22T20:02:10.315Z,18.90
2018-07-22T20:04:38.456Z,18.90
2018-07-22T20:07:06.720Z,18.80
2018-07-22T20:09:34.978Z,18.90
2018-07-22T20:12:03.017Z,18.90
2018-07-22T20:14:31.192Z,18.70
2018-07-22T20:16:59.345Z,18.70
2018-07-22T20:19:27.517Z,18.70
2018-07-22T20:21:55.679Z,18.70
2018-07-22T20:24:23.972Z,18.70
2018-07-22T20:26:52.037Z,18.70
2018-07-22T20:29:20.693Z,18.70
2018-07-22T20:31:48.870Z,18.70
2018-07-22T20:34:17.028Z,18.70
2018-07-22T20:36:45.260Z,18.60
2018-07-22T20:39:13.412Z,18.60
2018-07-22T20:41:41.914Z,18.60
2018-07-22T20:44:10.146Z,18.60
2018-07-22T20:46:38.321Z,18.60
2018-07-22T20:49:06.520Z,18.60
2018-07-22T20:51:34.693Z,18.50
2018-07-22T20:54:02.857Z,18.50
2018-07-22T20:56:31.239Z,18.50
2018-07-22T20:58:59.462Z,18.60
2018-07-22T21:01:27.708Z,18.50
2018-07-22T21:03:56.969Z,18.60
2018-07-22T21:06:25.185Z,18.60
2018-07-22T21:08:53.324Z,18.60
2018-07-22T21:11:23.581Z,18.60
2018-07-22T21:13:51.790Z,18.60
2018-07-22T21:16:19.952Z,18.60
2018-07-22T21:18:48.104Z,18.60
2018-07-22T21:21:16.305Z,18.60
2018-07-22T21:23:44.455Z,18.60
2018-07-22T21:26:12.625Z,18.50
2018-07-22T21:28:41.104Z,18.50
2018-07-22T21:31:09.345Z,18.50
2018-07-22T21:33:37.573Z,18.40
2018-07-22T21:36:05.849Z,18.40
2018-07-22T21:38:34.077Z,18.40
2018-07-22T21:41:02.267Z,18.40
2018-07-22T21:43:30.473Z,18.40
2018-07-22T21:45:58.602Z,18.40
2018-07-22T21:48:26.761Z,18.40
2018-07-22T21:50:54.928Z,18.30
2018-07-22T21:53:23.110Z,18.30
2018-07-22T21:55:51.313Z,18.30
2018-07-22T21:58:19.476Z,18.20
2018-07-22T22:00:47.650Z,18.20
2018-07-22T22:03:16.848Z,18.20
2018-07-22T22:05:45.007Z,18.20
2018-07-22T22:08:13.194Z,18.20
2018-07-22T22:10:41.345Z,18.10
2018-07-22T22:13:09.534Z,18.10
2018-07-22T22:15:37.682Z,18.10
2018-07-22T22:18:05.958Z,18.10
2018-07-22T22:20:34.158Z,18.00
2018-07-22T22:23:02.340Z,18.00
2018-07-22T22:25:30.564Z,17.90
2018-07-22T22:27:58.713Z,17.90
2018-07-22T22:30:26.889Z,17.90
2018-07-22T22:32:55.025Z,17.80
2018-07-22T22:35:23.615Z,17.90
2018-07-22T22:37:51.779Z,17.80
2018-07-22T22:40:20.784Z,17.80
2018-07-22T22:42:48.928Z,17.80
2018-07-22T22:45:17.548Z,17.70
2018-07-22T22:47:45.704Z,17.70
2018-07-22T22:50:13.929Z,17.60
2018-07-22T22:52:42.424Z,17.60
2018-07-22T22:55:10.710Z,17.70
2018-07-22T22:57:39.108Z,17.60
2018-07-22T23:02:36.791Z,17.60
2018-07-22T23:05:06.513Z,17.60
2018-07-22T23:07:34.710Z,17.50
2018-07-22T23:10:03.133Z,17.50
2018-07-22T23:12:31.281Z,17.50
2018-07-22T23:14:59.432Z,17.50
2018-07-22T23:17:27.573Z,17.50
2018-07-22T23:19:55.848Z,17.50
2018-07-22T23:22:24.021Z,17.50
2018-07-22T23:24:52.172Z,17.40
2018-07-22T23:27:20.335Z,17.40
2018-07-22T23:29:48.485Z,17.30
2018-07-22T23:32:16.666Z,17.30
2018-07-22T23:34:44.828Z,17.40
2018-07-22T23:37:12.960Z,17.40
2018-07-22T23:39:41.101Z,17.30
2018-07-22T23:42:09.244Z,17.30
2018-07-22T23:44:37.441Z,17.40
2018-07-22T23:47:05.596Z,17.20
2018-07-22T23:49:33.769Z,17.20
2018-07-22T23:52:01.924Z,17.20
2018-07-22T23:54:30.069Z,17.20
2018-07-22T23:56:58.217Z,17.10
2018-07-22T23:59:26.381Z,17.10
